createdAt,value
2023-06-11T00:01:46.004Z,100111.59
2023-06-11T00:04:50.812Z,100099.16
2023-06-11T00:07:53.367Z,100108.56
2023-06-11T00:10:55.862Z,100140.53
2023-06-11T00:13:58.299Z,100134.75
2023-06-11T00:17:00.704Z,100139.81
2023-06-11T00:20:04.939Z,100137.47
2023-06-11T00:23:07.767Z,100135.91
2023-06-11T00:26:10.806Z,100137.88
2023-06-11T00:29:16.330Z,100144.06
2023-06-11T00:32:18.766Z,100114.84
2023-06-11T00:35:21.805Z,100140.94
2023-06-11T00:38:24.478Z,100130.84
2023-06-11T00:41:31.054Z,100137.88
2023-06-11T00:44:35.203Z,100111.00
2023-06-11T00:47:40.436Z,100103.09
2023-06-11T00:50:49.482Z,100109.38
2023-06-11T00:53:55.590Z,100102.34
2023-06-11T00:56:58.364Z,100098.03
2023-06-11T01:00:01.835Z,100147.22
2023-06-11T01:03:10.044Z,100151.53
2023-06-11T01:06:18.363Z,100153.50
2023-06-11T01:09:22.275Z,100106.22
2023-06-11T01:12:24.913Z,100102.31
2023-06-11T01:15:27.549Z,100123.78
2023-06-11T01:18:35.182Z,100112.41
2023-06-11T01:21:46.356Z,100134.25
2023-06-11T01:24:54.647Z,100145.25
2023-06-11T01:28:04.277Z,100118.69
2023-06-11T01:31:13.138Z,100124.91
2023-06-11T01:34:16.103Z,100117.88
2023-06-11T01:37:18.636Z,100105.44
2023-06-11T01:40:26.097Z,100129.97
2023-06-11T01:43:30.795Z,100117.56
2023-06-11T01:46:33.480Z,100109.38
2023-06-11T01:49:36.259Z,100118.34
2023-06-11T01:52:39.685Z,100136.72
2023-06-11T01:55:43.860Z,100117.19
2023-06-11T01:58:46.859Z,100117.97
2023-06-11T02:01:54.534Z,100129.28
2023-06-11T02:04:57.240Z,100112.53
2023-06-11T02:07:59.772Z,100139.13
2023-06-11T02:11:03.910Z,100118.00
2023-06-11T02:14:06.452Z,100128.56
2023-06-11T02:17:09.489Z,100123.09
2023-06-11T02:20:15.115Z,100150.03
2023-06-11T02:23:17.589Z,100157.06
2023-06-11T02:26:20.165Z,100119.59
2023-06-11T02:29:22.670Z,100123.09
2023-06-11T02:32:25.133Z,100133.34
2023-06-11T02:35:27.603Z,100143.81
2023-06-11T02:38:30.081Z,100117.66
2023-06-11T02:41:32.549Z,100127.84
2023-06-11T02:44:36.024Z,100129.00
2023-06-11T02:47:38.479Z,100136.44
2023-06-11T02:50:40.963Z,100161.78
2023-06-11T02:53:43.759Z,100130.59
2023-06-11T02:56:46.358Z,100151.63
2023-06-11T02:59:48.876Z,100145.41
2023-06-11T03:02:51.541Z,100142.28
2023-06-11T03:06:01.883Z,100150.53
2023-06-11T03:09:05.025Z,100086.88
2023-06-11T03:12:08.262Z,100130.22
2023-06-11T03:15:11.550Z,100164.16
2023-06-11T03:18:14.665Z,100133.75
2023-06-11T03:21:18.937Z,100141.56
2023-06-11T03:24:21.622Z,100139.63
2023-06-11T03:27:25.973Z,100157.22
2023-06-11T03:30:28.447Z,100161.88
2023-06-11T03:33:31.002Z,100184.16
2023-06-11T03:36:33.484Z,100160.34
2023-06-11T03:39:37.081Z,100156.44
2023-06-11T03:42:39.771Z,100161.88
2023-06-11T03:45:42.275Z,100165.03
2023-06-11T03:48:44.762Z,100154.47
2023-06-11T03:51:47.318Z,100161.91
2023-06-11T03:54:50.694Z,100161.50
2023-06-11T03:57:53.247Z,100200.53
2023-06-11T04:00:55.984Z,100163.03
2023-06-11T04:03:59.304Z,100159.13
2023-06-11T04:07:01.832Z,100164.97
2023-06-11T04:10:04.545Z,100171.59
2023-06-11T04:13:08.563Z,100148.94
2023-06-11T04:16:11.265Z,100174.66
2023-06-11T04:19:13.838Z,100161.06
2023-06-11T04:22:17.422Z,100172.34
2023-06-11T04:25:20.451Z,100160.63
2023-06-11T04:28:24.445Z,100165.31
2023-06-11T04:31:28.054Z,100193.72
2023-06-11T04:34:32.227Z,100171.09
2023-06-11T04:37:41.333Z,100156.59
2023-06-11T04:40:51.989Z,100161.72
2023-06-11T04:43:55.305Z,100173.75
2023-06-11T04:46:58.318Z,100199.88
2023-06-11T04:50:05.552Z,100202.59
2023-06-11T04:53:09.237Z,100182.16
2023-06-11T04:56:12.196Z,100168.94
2023-06-11T04:59:16.368Z,100190.28
2023-06-11T05:02:20.000Z,100169.28
2023-06-11T05:05:22.699Z,100161.03
2023-06-11T05:08:26.791Z,100164.84
2023-06-11T05:11:30.563Z,100184.34
2023-06-11T05:14:33.051Z,100180.81
2023-06-11T05:17:35.884Z,100163.56
2023-06-11T05:20:38.591Z,100161.97
2023-06-11T05:23:41.204Z,100167.84
2023-06-11T05:26:45.798Z,100164.31
2023-06-11T05:29:49.093Z,100163.50
2023-06-11T05:32:54.507Z,100203.25
2023-06-11T05:35:57.038Z,100146.66
2023-06-11T05:39:00.104Z,100172.44
2023-06-11T05:42:02.684Z,100177.16
2023-06-11T05:45:07.532Z,100179.47
2023-06-11T05:48:10.229Z,100175.94
2023-06-11T05:51:14.391Z,100187.66
2023-06-11T05:54:16.990Z,100173.47
2023-06-11T05:57:25.726Z,100176.06
2023-06-11T06:00:31.721Z,100189.25
2023-06-11T06:03:35.260Z,100216.41
2023-06-11T06:06:38.965Z,100176.06
2023-06-11T06:09:41.459Z,100189.25
2023-06-11T06:12:43.929Z,100186.31
2023-06-11T06:15:47.621Z,100185.75
2023-06-11T06:18:50.202Z,100163.81
2023-06-11T06:21:52.696Z,100184.44
2023-06-11T06:24:57.981Z,100179.91
2023-06-11T06:28:03.399Z,100181.75
2023-06-11T06:31:09.111Z,100183.38
2023-06-11T06:34:13.447Z,100214.94
2023-06-11T06:37:16.353Z,100192.09
2023-06-11T06:40:21.506Z,100210.75
2023-06-11T06:43:24.170Z,100209.88
2023-06-11T06:46:31.664Z,100206.53
2023-06-11T06:49:35.088Z,100191.44
2023-06-11T06:52:37.559Z,100205.03
2023-06-11T06:55:40.120Z,100193.78
2023-06-11T06:58:44.813Z,100191.00
2023-06-11T07:01:48.383Z,100193.00
2023-06-11T07:04:52.611Z,100223.66
2023-06-11T07:07:55.273Z,100203.16
2023-06-11T07:10:58.932Z,100236.66
2023-06-11T07:14:14.758Z,100239.66
2023-06-11T07:17:19.530Z,100221.84
2023-06-11T07:20:23.896Z,100210.97
2023-06-11T07:23:26.675Z,100236.94
2023-06-11T07:26:29.937Z,100199.22
2023-06-11T07:29:34.136Z,100240.22
2023-06-11T07:32:37.429Z,100194.25
2023-06-11T07:35:40.279Z,100214.50
2023-06-11T07:38:45.212Z,100201.34
2023-06-11T07:41:49.279Z,100220.75
2023-06-11T07:44:51.929Z,100187.25
2023-06-11T07:47:54.562Z,100203.13
2023-06-11T07:50:57.887Z,100193.13
2023-06-11T07:54:02.162Z,100188.47
2023-06-11T07:57:04.699Z,100216.88
2023-06-11T08:00:14.455Z,100223.97
2023-06-11T08:03:18.228Z,100242.53
2023-06-11T08:06:21.950Z,100221.28
2023-06-11T08:09:24.500Z,100237.47
2023-06-11T08:12:27.063Z,100216.72
2023-06-11T08:15:30.854Z,100231.09
2023-06-11T08:18:33.411Z,100234.03
2023-06-11T08:21:36.634Z,100233.25
2023-06-11T08:24:39.094Z,100234.63
2023-06-11T08:27:41.752Z,100210.78
2023-06-11T08:30:44.249Z,100235.91
2023-06-11T08:33:46.754Z,100219.44
2023-06-11T08:36:49.242Z,100225.81
2023-06-11T08:39:51.743Z,100228.41
2023-06-11T08:42:54.489Z,100243.25
2023-06-11T08:45:57.167Z,100247.22
2023-06-11T08:49:03.902Z,100259.75
2023-06-11T08:52:06.779Z,100200.75
2023-06-11T08:55:09.996Z,100213.28
2023-06-11T08:58:13.675Z,100238.19
2023-06-11T09:01:16.688Z,100262.41
2023-06-11T09:04:25.220Z,100231.41
2023-06-11T09:07:27.749Z,100232.97
2023-06-11T09:10:30.228Z,100227.59
2023-06-11T09:13:33.266Z,100236.72
2023-06-11T09:16:41.100Z,100237.50
2023-06-11T09:19:44.005Z,100260.91
2023-06-11T09:22:47.246Z,100219.63
2023-06-11T09:25:49.682Z,100226.41
2023-06-11T09:28:54.572Z,100248.34
2023-06-11T09:32:31.730Z,100242.13
2023-06-11T09:35:33.413Z,100248.50
2023-06-11T09:38:36.013Z,100241.63
2023-06-11T09:41:47.807Z,100248.97
2023-06-11T09:44:50.949Z,100250.19
2023-06-11T09:47:53.929Z,100264.34
2023-06-11T09:50:56.460Z,100246.44
2023-06-11T09:53:59.540Z,100249.59
2023-06-11T09:57:02.308Z,100247.69
2023-06-11T10:00:10.864Z,100252.38
2023-06-11T10:03:13.842Z,100259.44
2023-06-11T10:06:20.364Z,100264.81
2023-06-11T10:09:23.151Z,100253.22
2023-06-11T10:12:25.613Z,100266.09
2023-06-11T10:15:31.810Z,100257.28
2023-06-11T10:18:34.805Z,100263.88
2023-06-11T10:21:42.514Z,100256.16
2023-06-11T10:24:44.949Z,100249.84
2023-06-11T10:27:47.966Z,100242.91
2023-06-11T10:30:54.620Z,100253.09
2023-06-11T10:34:07.134Z,100252.97
2023-06-11T10:37:10.816Z,100249.84
2023-06-11T10:40:13.737Z,100215.22
2023-06-11T10:43:18.505Z,100271.66
2023-06-11T10:46:21.108Z,100237.75
2023-06-11T10:49:27.061Z,100217.66
2023-06-11T10:52:29.575Z,100250.81
2023-06-11T10:55:33.984Z,100267.41
2023-06-11T10:58:39.504Z,100247.94
2023-06-11T11:01:42.080Z,100246.22
2023-06-11T11:04:51.661Z,100267.13
2023-06-11T11:07:55.366Z,100235.19
2023-06-11T11:11:01.070Z,100271.88
2023-06-11T11:14:04.858Z,100250.75
2023-06-11T11:17:07.494Z,100245.78
2023-06-11T11:20:11.346Z,100268.75
2023-06-11T11:23:13.883Z,100261.66
2023-06-11T11:26:18.743Z,100247.72
2023-06-11T11:29:21.195Z,100248.13
2023-06-11T11:32:25.229Z,100232.56
2023-06-11T11:35:29.858Z,100243.03
2023-06-11T11:38:38.983Z,100229.81
2023-06-11T11:41:51.830Z,100242.25
2023-06-11T11:44:58.587Z,100225.50
2023-06-11T11:48:05.050Z,100230.22
2023-06-11T11:51:08.582Z,100224.69
2023-06-11T11:54:14.854Z,100222.75
2023-06-11T11:57:21.365Z,100220.47
2023-06-11T12:00:27.284Z,100221.19
2023-06-11T12:03:29.887Z,100211.78
2023-06-11T12:06:32.605Z,100219.69
2023-06-11T12:09:38.034Z,100204.00
2023-06-11T12:12:40.602Z,100213.69
2023-06-11T12:15:43.064Z,100212.97
2023-06-11T12:18:46.651Z,100207.09
2023-06-11T12:21:50.206Z,100235.25
2023-06-11T12:24:52.673Z,100201.28
2023-06-11T12:27:55.805Z,100190.31
2023-06-11T12:30:58.367Z,100189.97
2023-06-11T12:34:00.870Z,100227.03
2023-06-11T12:37:03.619Z,100197.88
2023-06-11T12:40:06.837Z,100196.25
2023-06-11T12:43:09.277Z,100231.00
2023-06-11T12:46:11.803Z,100203.34
2023-06-11T12:49:14.561Z,100191.22
2023-06-11T12:52:17.225Z,100210.34
2023-06-11T12:55:20.329Z,100213.50
2023-06-11T12:58:23.069Z,100188.94
2023-06-11T13:01:25.536Z,100200.69
2023-06-11T13:04:28.147Z,100208.19
2023-06-11T13:07:30.692Z,100201.53
2023-06-11T13:10:33.138Z,100200.34
2023-06-11T13:13:35.576Z,100205.00
2023-06-11T13:16:38.044Z,100203.44
2023-06-11T13:19:40.727Z,100198.00
2023-06-11T13:22:43.254Z,100201.94
2023-06-11T13:25:48.279Z,100229.16
2023-06-11T13:28:51.586Z,100208.13
2023-06-11T13:31:54.408Z,100200.81
2023-06-11T13:34:57.082Z,100213.28
2023-06-11T13:37:59.730Z,100196.50
2023-06-11T13:41:02.484Z,100203.50
2023-06-11T13:44:08.291Z,100194.16
2023-06-11T13:47:11.007Z,100213.63
2023-06-11T13:50:13.839Z,100190.19
2023-06-11T13:53:16.758Z,100194.94
2023-06-11T13:56:19.588Z,100183.56
2023-06-11T13:59:22.799Z,100208.97
2023-06-11T14:02:25.436Z,100225.31
2023-06-11T14:05:28.066Z,100203.44
2023-06-11T14:08:30.856Z,100205.97
2023-06-11T14:11:33.404Z,100199.78
2023-06-11T14:14:35.910Z,100206.78
2023-06-11T14:17:43.804Z,100205.22
2023-06-11T14:20:46.387Z,100202.16
2023-06-11T14:23:48.958Z,100211.53
2023-06-11T14:26:52.372Z,100234.94
2023-06-11T14:29:54.806Z,100220.56
2023-06-11T14:32:57.451Z,100228.00
2023-06-11T14:36:04.476Z,100222.47
2023-06-11T14:39:07.165Z,100203.00
2023-06-11T14:42:09.672Z,100208.88
2023-06-11T14:45:12.078Z,100220.94
2023-06-11T14:48:14.657Z,100224.88
2023-06-11T14:51:17.347Z,100219.38
2023-06-11T14:54:19.975Z,100196.03
2023-06-11T14:57:26.011Z,100207.38
2023-06-11T15:00:28.856Z,100236.16
2023-06-11T15:03:31.392Z,100222.91
2023-06-11T15:06:34.763Z,100217.56
2023-06-11T15:09:37.678Z,100253.47
2023-06-11T15:12:40.201Z,100218.75
2023-06-11T15:15:42.643Z,100251.91
2023-06-11T15:18:45.115Z,100223.53
2023-06-11T15:21:47.848Z,100227.78
2023-06-11T15:24:50.513Z,100244.22
2023-06-11T15:27:52.979Z,100228.22
2023-06-11T15:30:55.644Z,100274.38
2023-06-11T15:33:58.075Z,100239.28
2023-06-11T15:37:00.523Z,100265.00
2023-06-11T15:40:03.127Z,100264.66
2023-06-11T15:43:06.575Z,100234.25
2023-06-11T15:46:08.984Z,100254.16
2023-06-11T15:49:11.434Z,100275.25
2023-06-11T15:52:14.110Z,100256.53
2023-06-11T15:55:16.988Z,100255.03
2023-06-11T15:58:19.844Z,100257.41
2023-06-11T16:01:22.520Z,100269.94
2023-06-11T16:04:25.155Z,100287.78
2023-06-11T16:07:27.658Z,100258.94
2023-06-11T16:10:30.146Z,100257.41
2023-06-11T16:13:33.786Z,100273.00
2023-06-11T16:16:36.231Z,100266.81
2023-06-11T16:19:38.755Z,100266.88
2023-06-11T16:22:41.405Z,100290.31
2023-06-11T16:25:45.879Z,100278.25
2023-06-11T16:28:49.456Z,100298.19
2023-06-11T16:31:52.069Z,100292.75
2023-06-11T16:34:54.540Z,100287.72
2023-06-11T16:37:56.968Z,100287.34
2023-06-11T16:40:59.474Z,100289.31
2023-06-11T16:44:01.959Z,100288.97
2023-06-11T16:47:04.787Z,100294.47
2023-06-11T16:50:07.791Z,100320.22
2023-06-11T16:53:10.276Z,100300.72
2023-06-11T16:56:12.996Z,100298.81
2023-06-11T16:59:15.480Z,100289.47
2023-06-11T17:02:17.971Z,100309.03
2023-06-11T17:05:20.484Z,100303.19
2023-06-11T17:08:22.927Z,100313.34
2023-06-11T17:11:26.931Z,100303.25
2023-06-11T17:14:29.456Z,100303.25
2023-06-11T17:17:32.083Z,100336.38
2023-06-11T17:20:35.357Z,100299.69
2023-06-11T17:23:37.988Z,100334.81
2023-06-11T17:26:42.767Z,100322.75
2023-06-11T17:29:45.416Z,100338.75
2023-06-11T17:32:48.043Z,100332.09
2023-06-11T17:35:52.801Z,100332.47
2023-06-11T17:38:55.236Z,100317.34
2023-06-11T17:41:57.629Z,100334.91
2023-06-11T17:45:00.179Z,100316.50
2023-06-11T17:48:03.012Z,100300.63
2023-06-11T17:51:05.536Z,100339.63
2023-06-11T17:54:07.937Z,100335.00
2023-06-11T17:57:11.564Z,100315.84
2023-06-11T18:00:15.775Z,100323.72
2023-06-11T18:03:18.224Z,100319.06
2023-06-11T18:06:20.742Z,100325.31
2023-06-11T18:09:23.179Z,100315.50
2023-06-11T18:12:25.615Z,100340.84
2023-06-11T18:15:34.217Z,100325.69
2023-06-11T18:18:37.602Z,100349.50
2023-06-11T18:21:40.275Z,100358.97
2023-06-11T18:24:42.939Z,100332.00
2023-06-11T18:27:45.384Z,100333.25
2023-06-11T18:30:47.811Z,100368.84
2023-06-11T18:33:50.333Z,100331.78
2023-06-11T18:36:52.849Z,100355.66
2023-06-11T18:39:55.303Z,100378.75
2023-06-11T18:42:57.705Z,100346.31
2023-06-11T18:46:00.308Z,100359.69
2023-06-11T18:49:02.908Z,100368.31
2023-06-11T18:52:07.308Z,100371.84
2023-06-11T18:55:10.300Z,100400.44
2023-06-11T18:58:12.798Z,100379.78
2023-06-11T19:01:15.477Z,100375.19
2023-06-11T19:04:22.961Z,100375.16
2023-06-11T19:07:26.074Z,100407.25
2023-06-11T19:10:28.577Z,100403.00
2023-06-11T19:13:31.056Z,100426.50
2023-06-11T19:16:33.665Z,100388.63
2023-06-11T19:19:36.418Z,100417.97
2023-06-11T19:22:38.910Z,100409.03
2023-06-11T19:25:41.774Z,100409.47
2023-06-11T19:28:44.246Z,100437.59
2023-06-11T19:31:47.588Z,100416.19
2023-06-11T19:34:50.052Z,100409.88
2023-06-11T19:37:52.638Z,100435.75
2023-06-11T19:40:55.154Z,100416.25
2023-06-11T19:43:58.225Z,100413.94
2023-06-11T19:47:00.842Z,100460.09
2023-06-11T19:50:06.742Z,100424.91
2023-06-11T19:53:09.207Z,100422.94
2023-06-11T19:56:15.717Z,100460.94
2023-06-11T19:59:20.298Z,100419.91
2023-06-11T20:02:23.377Z,100445.69
2023-06-11T20:05:26.960Z,100454.72
2023-06-11T20:08:29.582Z,100453.97
2023-06-11T20:11:32.080Z,100432.09
2023-06-11T20:14:36.627Z,100458.34
2023-06-11T20:17:39.371Z,100434.50
2023-06-11T20:20:43.297Z,100442.28
2023-06-11T20:23:47.808Z,100449.38
2023-06-11T20:26:50.237Z,100448.22
2023-06-11T20:29:52.720Z,100449.44
2023-06-11T20:32:55.223Z,100450.66
2023-06-11T20:35:57.767Z,100450.25
2023-06-11T20:39:00.232Z,100451.84
2023-06-11T20:42:02.689Z,100451.06
2023-06-11T20:45:05.771Z,100467.53
2023-06-11T20:48:08.503Z,100454.59
2023-06-11T20:51:10.999Z,100475.28
2023-06-11T20:54:13.659Z,100454.25
2023-06-11T20:57:16.050Z,100439.34
2023-06-11T21:00:18.657Z,100451.50
2023-06-11T21:03:21.140Z,100480.06
2023-06-11T21:06:23.812Z,100463.63
2023-06-11T21:09:26.314Z,100424.44
2023-06-11T21:12:30.257Z,100449.53
2023-06-11T21:15:32.899Z,100459.72
2023-06-11T21:18:35.390Z,100433.84
2023-06-11T21:21:38.008Z,100452.28
2023-06-11T21:24:40.555Z,100441.72
2023-06-11T21:27:43.883Z,100470.72
2023-06-11T21:30:46.835Z,100468.72
2023-06-11T21:33:49.257Z,100473.91
2023-06-11T21:36:51.693Z,100442.16
2023-06-11T21:39:55.270Z,100445.72
2023-06-11T21:42:58.354Z,100475.47
2023-06-11T21:46:00.897Z,100456.28
2023-06-11T21:49:03.312Z,100455.91
2023-06-11T21:52:06.945Z,100439.88
2023-06-11T21:55:09.596Z,100455.91
2023-06-11T21:58:12.526Z,100481.75
2023-06-11T22:01:15.130Z,100448.84
2023-06-11T22:04:18.970Z,100442.22
2023-06-11T22:07:22.492Z,100438.69
2023-06-11T22:10:25.629Z,100431.63
2023-06-11T22:13:30.976Z,100434.38
2023-06-11T22:16:36.255Z,100452.00
2023-06-11T22:19:39.840Z,100468.41
2023-06-11T22:22:43.841Z,100437.91
2023-06-11T22:25:46.281Z,100454.34
2023-06-11T22:28:48.810Z,100439.13
2023-06-11T22:31:51.239Z,100457.88
2023-06-11T22:34:53.882Z,100461.38
2023-06-11T22:37:56.260Z,100435.53
2023-06-11T22:40:58.744Z,100429.28
2023-06-11T22:44:01.146Z,100418.41
2023-06-11T22:47:04.072Z,100418.34
2023-06-11T22:50:07.389Z,100433.63
2023-06-11T22:53:14.986Z,100423.44
2023-06-11T22:56:17.496Z,100437.91
2023-06-11T22:59:19.896Z,100413.69
2023-06-11T23:02:22.488Z,100455.13
2023-06-11T23:05:24.951Z,100463.78
2023-06-11T23:08:27.388Z,100417.22
2023-06-11T23:11:29.800Z,100451.22
2023-06-11T23:14:32.225Z,100450.44
2023-06-11T23:17:34.744Z,100407.44
2023-06-11T23:20:37.773Z,100447.75
2023-06-11T23:23:42.588Z,100416.91
2023-06-11T23:26:46.099Z,100428.56
2023-06-11T23:29:49.389Z,100423.09
2023-06-11T23:32:52.295Z,100434.06
2023-06-11T23:35:54.750Z,100430.56
2023-06-11T23:38:58.150Z,100420.00
2023-06-11T23:42:00.583Z,100407.47
2023-06-11T23:45:03.525Z,100421.97
2023-06-11T23:48:06.224Z,100437.19
2023-06-11T23:51:10.174Z,100454.03
2023-06-11T23:54:12.650Z,100411.44
2023-06-11T23:57:15.123Z,100433.34
